createdAt,value
2019-01-25T00:00:07.222Z,87.44
2019-01-25T00:02:36.112Z,87.18
2019-01-25T00:05:05.094Z,87.23
2019-01-25T00:07:33.703Z,87.48
2019-01-25T00:10:02.337Z,87.57
2019-01-25T00:12:31.251Z,87.74
2019-01-25T00:15:00.204Z,87.68
2019-01-25T00:17:29.032Z,87.78
2019-01-25T00:19:57.658Z,87.69
2019-01-25T00:22:26.505Z,87.77
2019-01-25T00:24:55.127Z,87.69
2019-01-25T00:27:23.976Z,87.49
2019-01-25T00:29:52.589Z,87.18
2019-01-25T00:32:21.202Z,87.25
2019-01-25T00:34:50.129Z,87.32
2019-01-25T00:37:18.722Z,87.11
2019-01-25T00:39:47.342Z,87.11
2019-01-25T00:42:15.923Z,87.29
2019-01-25T00:44:44.538Z,87.24
2019-01-25T00:47:13.135Z,87.23
2019-01-25T00:49:41.747Z,87.13
2019-01-25T00:52:10.361Z,87.01
2019-01-25T00:54:38.992Z,86.90
2019-01-25T00:57:07.869Z,87.06
2019-01-25T00:59:36.479Z,87.18
2019-01-25T01:02:05.443Z,87.40
2019-01-25T01:04:34.438Z,87.47
2019-01-25T01:07:03.044Z,87.53
2019-01-25T01:09:31.669Z,87.20
2019-01-25T01:12:00.263Z,87.07
2019-01-25T01:14:28.874Z,87.06
2019-01-25T01:16:57.459Z,87.09
2019-01-25T01:19:26.075Z,87.21
2019-01-25T01:21:54.696Z,87.15
2019-01-25T01:24:23.599Z,87.42
2019-01-25T01:26:52.222Z,87.42
2019-01-25T01:29:21.176Z,87.70
2019-01-25T01:31:50.155Z,87.75
2019-01-25T01:34:18.760Z,87.75
2019-01-25T01:36:47.762Z,88.06
2019-01-25T01:39:16.728Z,87.96
2019-01-25T01:41:45.350Z,87.78
2019-01-25T01:44:13.955Z,87.83
2019-01-25T01:46:42.575Z,87.70
2019-01-25T01:49:11.458Z,87.55
2019-01-25T01:51:40.072Z,87.53
2019-01-25T01:54:08.856Z,87.62
2019-01-25T01:56:37.821Z,87.92
2019-01-25T01:59:06.707Z,88.51
2019-01-25T02:01:35.320Z,88.59
2019-01-25T02:04:03.950Z,88.47
2019-01-25T02:06:32.592Z,88.93
2019-01-25T02:09:01.210Z,88.47
2019-01-25T02:11:29.802Z,88.40
2019-01-25T02:13:58.710Z,88.37
2019-01-25T02:16:27.319Z,88.20
2019-01-25T02:18:55.937Z,88.65
2019-01-25T02:21:24.583Z,88.96
2019-01-25T02:23:53.546Z,88.92
2019-01-25T02:26:22.165Z,88.66
2019-01-25T02:28:50.769Z,88.51
2019-01-25T02:31:19.376Z,88.50
2019-01-25T02:33:47.977Z,88.52
2019-01-25T02:36:16.585Z,88.76
2019-01-25T02:38:45.542Z,88.67
2019-01-25T02:41:14.176Z,88.62
2019-01-25T02:43:42.765Z,88.86
2019-01-25T02:46:11.376Z,88.72
2019-01-25T02:48:40.330Z,89.24
2019-01-25T02:51:09.268Z,89.48
2019-01-25T02:53:38.159Z,89.49
2019-01-25T02:56:07.075Z,89.52
2019-01-25T02:58:35.656Z,89.47
2019-01-25T03:03:42.837Z,89.29
2019-01-25T03:06:11.447Z,88.83
2019-01-25T03:08:40.037Z,88.54
2019-01-25T03:11:08.667Z,88.50
2019-01-25T03:13:37.561Z,88.47
2019-01-25T03:16:06.176Z,88.61
2019-01-25T03:18:34.778Z,88.52
2019-01-25T03:21:05.008Z,88.68
2019-01-25T03:23:31.997Z,88.63
2019-01-25T03:26:00.627Z,88.84
2019-01-25T03:28:29.237Z,88.81
2019-01-25T03:30:58.144Z,88.99
2019-01-25T03:33:26.753Z,89.37
2019-01-25T03:35:55.417Z,89.22
2019-01-25T03:38:24.298Z,88.92
2019-01-25T03:40:55.143Z,88.19
2019-01-25T03:43:21.892Z,88.47
2019-01-25T03:45:50.513Z,88.50
2019-01-25T03:48:19.543Z,88.52
2019-01-25T03:50:48.454Z,88.59
2019-01-25T03:53:17.039Z,88.69
2019-01-25T03:55:45.672Z,88.78
2019-01-25T03:58:14.283Z,88.89
2019-01-25T04:00:43.168Z,89.00
2019-01-25T04:03:12.058Z,88.63
2019-01-25T04:05:40.691Z,88.65
2019-01-25T04:08:09.287Z,88.61
2019-01-25T04:10:37.889Z,88.71
2019-01-25T04:13:06.495Z,88.95
2019-01-25T04:15:35.100Z,89.17
2019-01-25T04:18:03.711Z,89.22
2019-01-25T04:20:32.320Z,88.79
2019-01-25T04:23:00.953Z,88.73
2019-01-25T04:25:29.895Z,88.78
2019-01-25T04:27:58.517Z,88.79
2019-01-25T04:30:27.149Z,88.84
2019-01-25T04:32:55.782Z,88.92
2019-01-25T04:35:24.395Z,88.88
2019-01-25T04:37:53.035Z,88.64
2019-01-25T04:40:22.011Z,88.77
2019-01-25T04:42:51.001Z,89.07
2019-01-25T04:45:19.636Z,89.04
2019-01-25T04:47:48.264Z,88.62
2019-01-25T04:50:19.934Z,88.64
2019-01-25T04:52:48.909Z,88.51
2019-01-25T04:55:26.868Z,88.49
2019-01-25T04:57:55.508Z,88.81
2019-01-25T05:00:24.125Z,88.82
2019-01-25T05:02:55.833Z,89.07
2019-01-25T05:05:24.816Z,89.25
2019-01-25T05:07:53.842Z,89.37
2019-01-25T05:10:22.458Z,89.14
2019-01-25T05:12:53.119Z,88.84
2019-01-25T05:15:19.724Z,88.91
2019-01-25T05:17:51.436Z,88.80
2019-01-25T05:20:20.043Z,88.89
2019-01-25T05:22:48.986Z,89.00
2019-01-25T05:25:17.617Z,89.20
2019-01-25T05:27:46.235Z,89.16
2019-01-25T05:30:14.847Z,88.93
2019-01-25T05:32:43.482Z,88.87
2019-01-25T05:35:12.397Z,88.81
2019-01-25T05:37:41.013Z,88.49
2019-01-25T05:40:09.648Z,88.51
2019-01-25T05:42:38.296Z,88.78
2019-01-25T05:45:10.159Z,88.75
2019-01-25T05:47:38.782Z,88.68
2019-01-25T05:50:07.679Z,88.87
2019-01-25T05:52:36.565Z,88.89
2019-01-25T05:55:06.246Z,89.05
2019-01-25T05:57:34.078Z,89.16
2019-01-25T06:00:02.967Z,89.09
2019-01-25T06:02:31.590Z,88.85
2019-01-25T06:05:00.214Z,88.95
2019-01-25T06:07:28.849Z,89.07
2019-01-25T06:09:57.456Z,88.98
2019-01-25T06:12:26.449Z,88.90
2019-01-25T06:14:55.046Z,88.85
2019-01-25T06:17:23.665Z,88.96
2019-01-25T06:19:52.275Z,88.76
2019-01-25T06:22:21.256Z,88.78
2019-01-25T06:24:50.171Z,89.01
2019-01-25T06:27:19.161Z,89.05
2019-01-25T06:29:47.771Z,88.92
2019-01-25T06:32:16.738Z,88.94
2019-01-25T06:34:45.628Z,88.93
2019-01-25T06:37:14.522Z,88.82
2019-01-25T06:39:43.398Z,88.72
2019-01-25T06:42:12.392Z,88.47
2019-01-25T06:44:41.002Z,88.57
2019-01-25T06:47:09.621Z,88.73
2019-01-25T06:49:38.226Z,88.91
2019-01-25T06:52:06.831Z,89.03
2019-01-25T06:54:35.430Z,89.34
2019-01-25T06:57:04.063Z,89.61
2019-01-25T06:59:32.976Z,89.32
2019-01-25T07:02:01.565Z,88.93
2019-01-25T07:04:30.340Z,88.70
2019-01-25T07:06:58.948Z,88.68
2019-01-25T07:09:27.822Z,88.97
2019-01-25T07:11:56.421Z,88.95
2019-01-25T07:14:25.029Z,88.70
2019-01-25T07:16:53.649Z,88.44
2019-01-25T07:19:22.268Z,88.57
2019-01-25T07:21:50.881Z,88.44
2019-01-25T07:24:19.504Z,88.35
2019-01-25T07:26:48.399Z,88.21
2019-01-25T07:29:17.301Z,88.41
2019-01-25T07:31:46.389Z,88.58
2019-01-25T07:34:14.483Z,88.67
2019-01-25T07:36:43.453Z,88.67
2019-01-25T07:41:50.653Z,88.19
2019-01-25T07:44:19.246Z,88.21
2019-01-25T07:46:48.216Z,88.15
2019-01-25T07:49:16.817Z,88.32
2019-01-25T07:51:45.440Z,88.30
2019-01-25T07:54:14.077Z,88.50
2019-01-25T07:56:42.676Z,88.42
2019-01-25T07:59:11.625Z,88.28
2019-01-25T08:01:40.240Z,88.03
2019-01-25T08:04:08.864Z,88.14
2019-01-25T08:06:37.478Z,88.07
2019-01-25T08:09:06.485Z,87.92
2019-01-25T08:11:35.061Z,87.71
2019-01-25T08:14:04.061Z,87.85
2019-01-25T08:16:32.935Z,87.95
2019-01-25T08:19:01.538Z,87.76
2019-01-25T08:21:30.141Z,87.66
2019-01-25T08:23:58.763Z,87.31
2019-01-25T08:26:27.365Z,87.12
2019-01-25T08:28:56.235Z,86.64
2019-01-25T08:31:24.845Z,86.36
2019-01-25T08:33:53.460Z,85.74
2019-01-25T08:36:22.113Z,85.80
2019-01-25T08:38:50.693Z,85.77
2019-01-25T08:41:19.559Z,84.73
2019-01-25T08:43:48.185Z,84.65
2019-01-25T08:46:16.781Z,84.76
2019-01-25T08:48:45.393Z,84.82
2019-01-25T08:51:14.101Z,84.66
2019-01-25T08:53:42.715Z,84.47
2019-01-25T08:56:11.655Z,84.38
2019-01-25T08:58:40.883Z,84.27
2019-01-25T09:01:09.495Z,84.11
2019-01-25T09:03:38.119Z,84.31
2019-01-25T09:06:06.738Z,83.51
2019-01-25T09:08:35.338Z,83.59
2019-01-25T09:11:04.271Z,83.19
2019-01-25T09:13:33.263Z,83.46
2019-01-25T09:16:02.304Z,83.05
2019-01-25T09:18:30.913Z,82.46
2019-01-25T09:20:59.855Z,83.09
2019-01-25T09:23:28.818Z,83.03
2019-01-25T09:26:01.131Z,83.26
2019-01-25T09:28:26.318Z,83.35
2019-01-25T09:30:54.942Z,83.60
2019-01-25T09:33:23.563Z,83.11
2019-01-25T09:35:52.171Z,82.11
2019-01-25T09:38:20.784Z,82.35
2019-01-25T09:40:49.397Z,82.10
2019-01-25T09:43:17.991Z,81.66
2019-01-25T09:45:46.616Z,81.95
2019-01-25T09:48:15.555Z,81.46
2019-01-25T09:50:44.180Z,81.91
2019-01-25T09:53:12.792Z,81.51
2019-01-25T09:55:41.708Z,81.63
2019-01-25T09:58:10.372Z,81.08
2019-01-25T10:00:39.020Z,81.62
2019-01-25T10:03:07.967Z,81.55
2019-01-25T10:05:36.954Z,81.24
2019-01-25T10:08:05.546Z,80.75
2019-01-25T10:10:34.166Z,80.51
2019-01-25T10:13:02.805Z,80.96
2019-01-25T10:15:31.789Z,79.72
2019-01-25T10:18:00.380Z,79.62
2019-01-25T10:20:29.107Z,79.70
2019-01-25T10:22:57.713Z,80.26
2019-01-25T10:25:26.345Z,79.32
2019-01-25T10:27:54.949Z,79.36
2019-01-25T10:30:23.898Z,79.72
2019-01-25T10:32:52.778Z,79.88
2019-01-25T10:35:21.782Z,79.44
2019-01-25T10:37:50.402Z,79.13
2019-01-25T10:40:21.830Z,79.15
2019-01-25T10:42:53.242Z,79.04
2019-01-25T10:48:09.495Z,78.18
2019-01-25T10:50:38.459Z,78.12
2019-01-25T10:53:07.448Z,77.46
2019-01-25T10:55:36.075Z,77.79
2019-01-25T10:58:05.025Z,78.08
2019-01-25T11:00:33.683Z,78.14
2019-01-25T11:03:02.588Z,77.24
2019-01-25T11:05:31.580Z,76.81
2019-01-25T11:08:00.469Z,76.92
2019-01-25T11:10:29.130Z,77.09
2019-01-25T11:13:00.978Z,77.33
2019-01-25T11:15:26.371Z,76.93
2019-01-25T11:17:54.970Z,77.77
2019-01-25T11:20:23.627Z,77.85
2019-01-25T11:22:52.269Z,77.27
2019-01-25T11:25:29.654Z,77.26
2019-01-25T11:27:58.255Z,77.11
2019-01-25T11:30:26.893Z,76.41
2019-01-25T11:32:55.824Z,76.41
2019-01-25T11:35:24.452Z,76.42
2019-01-25T11:37:53.054Z,76.46
2019-01-25T11:40:21.961Z,75.88
2019-01-25T11:42:50.576Z,76.52
2019-01-25T11:45:19.563Z,76.52
2019-01-25T11:47:48.516Z,76.44
2019-01-25T11:52:55.678Z,75.41
2019-01-25T11:55:24.289Z,75.79
2019-01-25T11:57:52.890Z,76.26
2019-01-25T12:03:00.451Z,76.24
2019-01-25T12:05:29.067Z,76.16
2019-01-25T12:07:57.957Z,76.31
2019-01-25T12:10:29.613Z,75.74
2019-01-25T12:12:58.221Z,75.94
2019-01-25T12:15:26.836Z,75.75
2019-01-25T12:17:55.762Z,75.69
2019-01-25T12:23:02.948Z,75.76
2019-01-25T12:25:31.849Z,75.93
2019-01-25T12:28:05.210Z,75.82
2019-01-25T12:30:37.905Z,75.58
2019-01-25T12:33:04.142Z,75.31
2019-01-25T12:35:38.985Z,75.46
2019-01-25T12:38:07.595Z,75.95
2019-01-25T12:40:36.202Z,75.13
2019-01-25T12:43:04.821Z,73.95
2019-01-25T12:45:33.432Z,75.14
2019-01-25T12:48:02.034Z,75.54
2019-01-25T12:50:36.662Z,74.99
2019-01-25T12:53:05.596Z,75.18
2019-01-25T12:55:34.220Z,75.19
2019-01-25T12:58:03.212Z,74.66
2019-01-25T13:00:31.843Z,74.30
2019-01-25T13:03:00.422Z,72.85
2019-01-25T13:05:29.056Z,73.10
2019-01-25T13:07:57.645Z,72.55
2019-01-25T13:10:26.591Z,72.73
2019-01-25T13:12:55.185Z,72.31
2019-01-25T13:15:23.808Z,72.87
2019-01-25T13:17:52.414Z,72.39
2019-01-25T13:20:30.432Z,72.38
2019-01-25T13:22:59.071Z,72.31
2019-01-25T13:25:27.678Z,72.27
2019-01-25T13:27:56.611Z,72.48
2019-01-25T13:30:28.505Z,72.82
2019-01-25T13:32:57.123Z,72.55
2019-01-25T13:35:25.714Z,72.44
2019-01-25T13:37:54.605Z,73.50
2019-01-25T13:40:23.597Z,73.47
2019-01-25T13:42:52.585Z,73.85
2019-01-25T13:45:21.303Z,73.26
2019-01-25T13:47:49.915Z,72.90
2019-01-25T13:50:27.886Z,72.68
2019-01-25T13:52:56.842Z,72.80
2019-01-25T13:55:25.838Z,71.98
2019-01-25T13:57:54.455Z,71.69
2019-01-25T14:00:29.083Z,71.56
2019-01-25T14:02:57.687Z,70.78
2019-01-25T14:05:26.609Z,71.28
2019-01-25T14:07:55.246Z,71.47
2019-01-25T14:10:27.099Z,71.39
2019-01-25T14:12:56.043Z,70.74
2019-01-25T14:15:24.648Z,71.03
2019-01-25T14:17:53.638Z,71.08
2019-01-25T14:20:23.478Z,71.28
2019-01-25T14:22:50.918Z,71.54
2019-01-25T14:25:19.521Z,71.66
2019-01-25T14:27:48.451Z,71.68
2019-01-25T14:33:07.874Z,71.77
2019-01-25T14:35:36.829Z,71.60
2019-01-25T14:38:05.813Z,71.33
2019-01-25T14:40:34.466Z,71.05
2019-01-25T14:43:03.388Z,71.51
2019-01-25T14:45:32.410Z,71.81
2019-01-25T14:48:01.047Z,71.32
2019-01-25T14:50:29.671Z,71.29
2019-01-25T14:52:58.341Z,71.35
2019-01-25T14:55:26.998Z,71.28
2019-01-25T14:57:55.634Z,71.45
2019-01-25T15:00:24.232Z,71.72
2019-01-25T15:02:53.183Z,71.80
2019-01-25T15:05:21.831Z,72.82
2019-01-25T15:07:50.463Z,72.82
2019-01-25T15:10:19.109Z,72.56
2019-01-25T15:12:47.736Z,72.30
2019-01-25T15:15:16.356Z,72.69
2019-01-25T15:17:45.270Z,73.50
2019-01-25T15:20:13.903Z,73.19
2019-01-25T15:22:42.844Z,73.27
2019-01-25T15:25:11.724Z,73.46
2019-01-25T15:27:40.339Z,74.01
2019-01-25T15:30:09.307Z,74.28
2019-01-25T15:32:37.913Z,74.14
2019-01-25T15:35:06.546Z,74.39
2019-01-25T15:37:35.182Z,73.72
2019-01-25T15:40:04.138Z,72.86
2019-01-25T15:42:32.760Z,73.76
2019-01-25T15:45:01.368Z,74.90
2019-01-25T15:47:30.295Z,73.92
2019-01-25T15:49:58.915Z,75.02
2019-01-25T15:52:27.884Z,75.22
2019-01-25T15:54:56.511Z,73.61
2019-01-25T15:57:25.130Z,75.51
2019-01-25T15:59:53.737Z,76.01
2019-01-25T16:02:22.704Z,76.02
2019-01-25T16:04:51.329Z,76.75
2019-01-25T16:07:19.946Z,76.95
2019-01-25T16:09:48.552Z,76.39
2019-01-25T16:12:17.184Z,76.80
2019-01-25T16:14:46.225Z,75.89
2019-01-25T16:17:14.864Z,75.56
2019-01-25T16:19:43.806Z,75.29
2019-01-25T16:22:12.466Z,76.40
2019-01-25T16:27:29.233Z,76.60
2019-01-25T16:29:58.199Z,76.28
2019-01-25T16:32:27.200Z,76.43
2019-01-25T16:34:55.818Z,76.16
2019-01-25T16:37:24.758Z,75.96
2019-01-25T16:39:53.378Z,75.09
2019-01-25T16:42:23.352Z,75.50
2019-01-25T16:44:51.959Z,76.59
2019-01-25T16:47:20.924Z,76.95
2019-01-25T16:49:49.839Z,75.61
2019-01-25T16:52:18.499Z,76.28
2019-01-25T16:54:47.390Z,76.10
2019-01-25T16:57:16.023Z,75.27
2019-01-25T16:59:44.632Z,76.38
2019-01-25T17:02:13.257Z,76.17
2019-01-25T17:04:41.891Z,76.26
2019-01-25T17:07:10.821Z,75.45
2019-01-25T17:09:39.719Z,76.11
2019-01-25T17:12:08.686Z,74.48
2019-01-25T17:14:37.290Z,74.58
2019-01-25T17:17:05.943Z,74.74
2019-01-25T17:19:34.519Z,75.14
2019-01-25T17:22:03.407Z,74.85
2019-01-25T17:24:32.330Z,75.51
2019-01-25T17:27:00.951Z,74.23
2019-01-25T17:29:29.570Z,74.65
2019-01-25T17:31:58.564Z,75.17
2019-01-25T17:34:27.197Z,75.23
2019-01-25T17:36:56.149Z,74.22
2019-01-25T17:39:25.014Z,74.09
2019-01-25T17:41:53.916Z,73.85
2019-01-25T17:44:22.542Z,74.57
2019-01-25T17:46:51.160Z,75.03
2019-01-25T17:49:19.798Z,74.11
2019-01-25T17:51:48.404Z,73.88
2019-01-25T17:54:17.125Z,74.22
2019-01-25T17:56:45.736Z,74.24
2019-01-25T17:59:15.402Z,73.52
2019-01-25T18:04:38.400Z,74.22
2019-01-25T18:07:07.004Z,74.68
2019-01-25T18:09:35.622Z,74.16
2019-01-25T18:12:04.242Z,74.59
2019-01-25T18:14:33.223Z,74.76
2019-01-25T18:17:01.821Z,75.10
2019-01-25T18:19:30.441Z,75.02
2019-01-25T18:24:37.920Z,75.35
2019-01-25T18:27:06.540Z,75.38
2019-01-25T18:29:35.459Z,75.55
2019-01-25T18:32:04.094Z,75.81
2019-01-25T18:34:32.727Z,75.71
2019-01-25T18:37:01.338Z,76.01
2019-01-25T18:39:29.957Z,76.14
2019-01-25T18:44:37.434Z,76.37
2019-01-25T18:47:06.013Z,76.12
2019-01-25T18:49:34.619Z,76.08
2019-01-25T18:52:03.545Z,76.44
2019-01-25T18:54:32.537Z,76.58
2019-01-25T18:57:01.150Z,76.70
2019-01-25T18:59:29.772Z,76.94
2019-01-25T19:04:37.258Z,76.81
2019-01-25T19:07:05.861Z,76.74
2019-01-25T19:09:34.491Z,76.69
2019-01-25T19:12:03.115Z,76.44
2019-01-25T19:14:31.751Z,76.61
2019-01-25T19:17:00.357Z,77.13
2019-01-25T19:19:29.310Z,77.32
2019-01-25T19:21:57.909Z,77.13
2019-01-25T19:24:26.885Z,76.91
2019-01-25T19:26:55.486Z,77.30
2019-01-25T19:29:24.121Z,77.28
2019-01-25T19:31:53.030Z,77.17
2019-01-25T19:34:21.932Z,77.13
2019-01-25T19:36:50.543Z,76.94
2019-01-25T19:39:19.496Z,76.88
2019-01-25T19:41:48.090Z,77.37
2019-01-25T19:44:16.705Z,76.80
2019-01-25T19:46:45.311Z,77.01
2019-01-25T19:49:14.223Z,77.29
2019-01-25T19:51:43.113Z,77.38
2019-01-25T19:54:11.748Z,77.10
2019-01-25T19:56:40.688Z,77.31
2019-01-25T19:59:09.683Z,77.15
2019-01-25T20:01:38.674Z,77.08
2019-01-25T20:04:07.296Z,77.11
2019-01-25T20:06:35.916Z,77.37
2019-01-25T20:09:04.792Z,77.50
2019-01-25T20:11:33.374Z,77.67
2019-01-25T20:14:02.299Z,77.45
2019-01-25T20:16:31.183Z,77.10
2019-01-25T20:18:59.816Z,77.28
2019-01-25T20:21:28.873Z,77.28
2019-01-25T20:23:57.851Z,77.35
2019-01-25T20:26:26.535Z,77.64
2019-01-25T20:28:55.146Z,77.48
2019-01-25T20:31:23.796Z,77.68
2019-01-25T20:33:52.912Z,77.60
2019-01-25T20:36:21.532Z,78.31
2019-01-25T20:38:50.565Z,78.24
2019-01-25T20:41:19.176Z,78.88
2019-01-25T20:43:47.870Z,78.73
2019-01-25T20:46:16.442Z,78.95
2019-01-25T20:48:45.067Z,79.04
2019-01-25T20:51:13.681Z,79.20
2019-01-25T20:53:42.306Z,79.47
2019-01-25T20:56:11.251Z,79.65
2019-01-25T20:58:40.144Z,79.78
2019-01-25T21:01:09.033Z,80.03
2019-01-25T21:03:37.649Z,80.07
2019-01-25T21:06:06.270Z,79.51
2019-01-25T21:08:34.877Z,79.76
2019-01-25T21:11:03.485Z,79.80
2019-01-25T21:13:32.454Z,80.21
2019-01-25T21:16:01.088Z,80.61
2019-01-25T21:18:29.709Z,80.95
2019-01-25T21:20:58.378Z,80.91
2019-01-25T21:23:27.297Z,81.23
2019-01-25T21:25:55.906Z,80.95
2019-01-25T21:28:24.861Z,81.06
2019-01-25T21:30:53.506Z,81.41
2019-01-25T21:33:22.111Z,81.81
2019-01-25T21:35:50.729Z,81.70
2019-01-25T21:38:19.335Z,81.91
2019-01-25T21:43:26.483Z,82.18
2019-01-25T21:45:55.096Z,82.07
2019-01-25T21:48:24.093Z,82.16
2019-01-25T21:50:52.676Z,82.59
2019-01-25T21:53:21.629Z,82.41
2019-01-25T21:55:50.258Z,82.63
2019-01-25T21:58:18.876Z,82.70
2019-01-25T22:00:47.511Z,82.38
2019-01-25T22:03:16.121Z,82.56
2019-01-25T22:05:45.055Z,82.60
2019-01-25T22:08:13.950Z,82.24
2019-01-25T22:10:43.927Z,82.25
2019-01-25T22:13:11.220Z,82.24
2019-01-25T22:15:39.902Z,82.36
2019-01-25T22:18:08.515Z,82.40
2019-01-25T22:20:37.136Z,82.38
2019-01-25T22:23:06.045Z,82.25
2019-01-25T22:25:34.663Z,82.09
2019-01-25T22:28:03.623Z,82.53
2019-01-25T22:30:32.617Z,82.18
2019-01-25T22:33:01.244Z,82.62
2019-01-25T22:35:30.201Z,82.73
2019-01-25T22:37:58.840Z,82.77
2019-01-25T22:40:27.473Z,82.91
2019-01-25T22:42:56.131Z,82.92
2019-01-25T22:48:03.663Z,83.93
2019-01-25T22:50:32.301Z,83.79
2019-01-25T22:53:01.203Z,83.70
2019-01-25T22:55:30.082Z,84.03
2019-01-25T22:57:58.685Z,84.22
2019-01-25T23:03:06.177Z,84.45
2019-01-25T23:08:28.408Z,84.12
2019-01-25T23:10:57.315Z,84.17
2019-01-25T23:13:26.204Z,84.81
2019-01-25T23:15:55.053Z,85.42
2019-01-25T23:18:23.663Z,85.40
2019-01-25T23:20:52.298Z,85.45
2019-01-25T23:23:20.892Z,85.61
2019-01-25T23:25:49.827Z,85.82
2019-01-25T23:28:18.720Z,86.07
2019-01-25T23:30:47.326Z,86.61
2019-01-25T23:33:15.931Z,86.56
2019-01-25T23:35:44.539Z,86.36
2019-01-25T23:38:13.148Z,86.24
2019-01-25T23:40:41.776Z,86.08
2019-01-25T23:43:10.717Z,86.01
2019-01-25T23:45:39.360Z,85.87
2019-01-25T23:48:07.945Z,85.44
2019-01-25T23:50:36.666Z,85.01
2019-01-25T23:53:05.260Z,84.91
2019-01-25T23:55:33.890Z,84.41
2019-01-25T23:58:02.480Z,83.97
